Data for 06/19/2005

Time Sea-Level Adjusted Pressure Absolute Pressure Temperature Relative Humidity Dew Point   
(mb) (inHg) (mb) (inHg) (C) (F) (%) (C) (F)
00:05 1017 30.03 847 25.01 10.2 50.4 71 5.3 41.5
00:10 1017 30.03 847 25.01 10.4 50.7 70 5.2 41.4
00:15 1017 30.03 847 25.01 10.3 50.5 71 5.4 41.6
00:20 1017 30.03 847 25.01 10 50 73 5.3 41.6
00:25 1018 30.06 847 25.01 9.8 49.6 74 5.3 41.6
00:30 1018 30.06 847 25.01 9.5 49.1 75 5.3 41.6
00:35 1018 30.06 847 25.01 9.3 48.7 75 5 41
00:40 1018 30.06 847 25.01 9.3 48.7 73 4.8 40.6
00:45 1018 30.06 847 25.01 9.5 49.1 73 4.9 40.8
00:50 1018 30.06 847 25.01 9.5 49 75 5.2 41.4
00:55 1018 30.06 847 25.01 9.5 49 75 5.3 41.5
01:00 1018 30.06 847 25.01 9.5 49 75 5.3 41.6
01:05 1018 30.06 847 25.01 9.4 48.9 76 5.3 41.5
01:10 1018 30.06 847 25.01 9.2 48.6 77 5.3 41.6
01:15 1018 30.06 847 25.01 9.1 48.4 77 5.2 41.4
01:20 1018 30.06 847 25.01 8.7 47.6 79 5.3 41.5
01:25 1018 30.06 847 25.01 8.5 47.2 78 4.9 40.7
01:30 1018 30.06 847 25.01 8.7 47.6 77 4.8 40.6
01:35 1018 30.06 847 25.01 8.5 47.3 78 4.9 40.9
01:40 1018 30.06 847 25.01 8.1 46.5 80 4.8 40.6
01:45 1018 30.06 847 25.01 7.9 46.1 80 4.6 40.3
01:50 1018 30.06 847 25.01 8 46.5 78 4.5 40.1
01:55 1018 30.06 847 25.01 8.2 46.8 78 4.7 40.4
02:00 1018 30.06 847 25.01 8 46.4 79 4.6 40.2
02:05 1018 30.06 847 25.01 7.9 46.3 78 4.4 39.9
02:10 1018 30.06 847 25.01 7.9 46.1 80 4.6 40.3
02:15 1018 30.06 847 25.01 7.7 45.9 79 4.3 39.8
02:20 1018 30.06 847 25.01 7.7 45.9 80 4.5 40
02:25 1018 30.06 847 25.01 7.5 45.5 80 4.4 39.9
02:30 1018 30.06 847 25.01 7.3 45.1 81 4.3 39.7
02:35 1018 30.06 847 25.01 7.2 44.9 80 4 39.1
02:40 1018 30.06 847 25.01 7.4 45.3 78 3.9 38.9
02:45 1018 30.06 847 25.01 7.3 45.1 80 4 39.2
02:50 1018 30.06 847 25.01 7.3 45.1 79 3.8 38.9
02:55 1018 30.06 847 25.01 7.3 45.1 79 3.9 39
03:00 1018 30.06 847 25.01 7.4 45.3 78 3.8 38.8
03:05 1018 30.06 847 25.01 7.8 46 76 3.8 38.9
03:10 1018 30.06 847 25.01 8 46.4 75 3.8 38.9
03:15 1018 30.06 847 25.01 8.1 46.6 76 4.1 39.3
03:20 1018 30.06 847 25.01 8.1 46.5 74 3.8 38.8
03:25 1018 30.06 848 25.04 8.1 46.6 75 4.1 39.3
03:30 1018 30.06 848 25.04 7.8 46 77 4 39.2
03:35 1018 30.06 848 25.04 7.3 45.2 79 3.9 39
03:40 1018 30.06 848 25.04 7.1 44.8 80 3.8 38.9
03:45 1018 30.06 848 25.04 7.1 44.8 80 3.8 38.9
03:50 1018 30.06 848 25.04 7.1 44.8 80 3.9 39
03:55 1018 30.06 848 25.04 7 44.7 80 3.8 38.8
04:00 1018 30.06 848 25.04 7.2 44.9 79 3.8 38.9
04:05 1019 30.09 848 25.04 7.2 45 79 3.8 38.9
04:10 1019 30.09 848 25.04 7.4 45.3 78 3.8 38.9
04:15 1019 30.09 848 25.04 7.5 45.4 78 3.9 38.9
04:20 1019 30.09 848 25.04 7.2 45 78 3.7 38.7
04:25 1019 30.09 848 25.04 7.1 44.8 79 3.7 38.7
04:30 1019 30.09 848 25.04 7.1 44.8 79 3.7 38.7
04:35 1019 30.09 848 25.04 7.1 44.7 79 3.7 38.6
04:40 1019 30.09 848 25.04 6.9 44.5 80 3.7 38.6
04:45 1019 30.09 848 25.04 6.9 44.4 79 3.6 38.5
04:50 1019 30.09 848 25.04 7 44.7 78 3.5 38.4
04:55 1019 30.09 848 25.04 7.2 45 78 3.6 38.5
05:00 1019 30.09 848 25.04 7.3 45.2 77 3.6 38.5
05:05 1019 30.09 848 25.04 7.2 44.9 78 3.6 38.5
05:10 1019 30.09 848 25.04 7.1 44.7 78 3.5 38.3
05:15 1019 30.09 848 25.04 6.9 44.5 79 3.5 38.3
05:20 1019 30.09 848 25.04 6.9 44.5 78 3.4 38.2
05:25 1019 30.09 848 25.04 6.9 44.5 78 3.4 38.2
05:30 1019 30.09 848 25.04 6.9 44.5 79 3.5 38.2
05:35 1019 30.09 848 25.04 6.9 44.3 78 3.3 38
05:40 1019 30.09 848 25.04 6.9 44.5 78 3.3 38
05:45 1019 30.09 848 25.04 7.2 45 76 3.3 38
05:50 1019 30.09 848 25.04 7.3 45.1 76 3.4 38
05:55 1019 30.09 848 25.04 7.4 45.2 76 3.3 38
06:00 1019 30.09 848 25.04 7.4 45.4 75 3.3 38
06:05 1019 30.09 848 25.04 7.3 45.2 76 3.4 38
06:10 1019 30.09 848 25.04 7.3 45.2 75 3.3 37.9
06:15 1019 30.09 848 25.04 7.5 45.5 75 3.3 37.9
06:20 1019 30.09 848 25.04 7.6 45.7 74 3.2 37.8
06:25 1019 30.09 848 25.04 7.6 45.8 74 3.3 38
06:30 1019 30.09 848 25.04 7.8 46.1 73 3.3 38
06:35 1019 30.09 848 25.04 8 46.4 73 3.4 38.1
06:40 1019 30.09 848 25.04 8.3 46.9 71 3.4 38.2
06:45 1019 30.09 848 25.04 8.6 47.6 70 3.4 38.2
06:50 1019 30.09 848 25.04 9.1 48.3 68 3.6 38.4
06:55 1019 30.09 849 25.07 9.4 48.9 67 3.6 38.5
07:00 1019 30.09 849 25.07 9.4 48.8 67 3.7 38.6
07:05 1019 30.09 849 25.07 9.3 48.7 68 3.6 38.6
07:10 1020 30.12 849 25.07 9.4 48.8 66 3.4 38.2
07:15 1020 30.12 849 25.07 10 50 65 3.8 38.9
07:20 1020 30.12 849 25.07 9.9 49.9 68 4.4 39.9
07:25 1020 30.12 849 25.07 10.3 50.6 64 3.8 38.8
07:30 1020 30.12 849 25.07 10.8 51.4 64 4.3 39.7
07:35 1020 30.12 849 25.07 11.3 52.4 63 4.6 40.3
07:40 1020 30.12 849 25.07 10.6 51.1 66 4.4 40
07:45 1020 30.12 849 25.07 11.4 52.5 62 4.5 40.2
07:50 1020 30.12 849 25.07 11.6 52.8 63 4.9 40.8
07:55 1020 30.12 849 25.07 11.1 52 66 5 41
08:00 1020 30.12 849 25.07 11.1 52 64 4.6 40.2
08:05 1020 30.12 849 25.07 11.9 53.4 61 4.7 40.4
08:10 1020 30.12 849 25.07 12.1 53.7 63 5.2 41.4
08:15 1020 30.12 849 25.07 11.9 53.3 61 4.7 40.5
08:20 1020 30.12 849 25.07 12 53.6 62 4.9 40.9
08:25 1020 30.12 849 25.07 11.5 52.7 63 4.8 40.6
08:30 1020 30.12 849 25.07 11.8 53.3 62 4.9 40.8
08:35 1020 30.12 849 25.07 12.8 55.1 58 4.8 40.6
08:40 1020 30.12 849 25.07 12.9 55.3 58 4.9 40.8
08:45 1020 30.12 849 25.07 13.2 55.8 57 4.8 40.7
08:50 1020 30.12 849 25.07 13.7 56.6 55 5 41
08:55 1020 30.12 849 25.07 14 57.2 55 5.2 41.3
09:00 1020 30.12 849 25.07 13.8 56.8 56 5.3 41.6
09:05 1020 30.12 849 25.07 12.6 54.7 59 4.9 40.9
09:10 1020 30.12 849 25.07 12.6 54.7 59 4.9 40.8
09:15 1020 30.12 849 25.07 13.3 56 58 5.2 41.4
09:20 1020 30.12 849 25.07 13.4 56.1 57 5.1 41.2
09:25 1020 30.12 849 25.07 13.5 56.3 56 4.9 40.9
09:30 1020 30.12 849 25.07 14.1 57.3 55 5.1 41.2
09:35 1020 30.12 849 25.07 14 57.3 56 5.4 41.7
09:40 1020 30.12 849 25.07 14.5 58 53 5.2 41.3
09:45 1020 30.12 849 25.07 14.6 58.3 53 5.2 41.4
09:50 1020 30.12 849 25.07 15.3 59.5 53 5.8 42.5
09:55 1020 30.12 849 25.07 15 59.1 56 6.3 43.3
10:00 1020 30.12 849 25.07 14.9 58.9 55 6.2 43.1
10:05 1020 30.12 849 25.07 15.8 60.5 52 6.1 43.1
10:10 1020 30.12 849 25.07 16.5 61.7 51 6.4 43.6
10:15 1020 30.12 849 25.07 15.7 60.2 56 6.9 44.5
10:20 1020 30.12 849 25.07 14.9 58.8 58 6.8 44.2
10:25 1020 30.12 849 25.07 15.7 60.2 52 6 42.9
10:30 1020 30.12 849 25.07 15.9 60.5 55 6.8 44.3
10:35 1020 30.12 849 25.07 16.4 61.6 51 6.3 43.4
10:40 1020 30.12 849 25.07 16.8 62.2 50 6.5 43.8
10:45 1020 30.12 849 25.07 17.3 63.2 49 6.6 43.9
10:50 1020 30.12 849 25.07 17.1 62.9 50 6.7 44
10:55 1020 30.12 849 25.07 17.6 63.6 49 6.9 44.4
11:00 1020 30.12 849 25.07 17.6 63.7 48 6.5 43.7
11:05 1020 30.12 849 25.07 17.9 64.2 48 6.8 44.2
11:10 1020 30.12 849 25.07 18.2 64.7 48 7 44.6
11:15 1020 30.12 849 25.07 17.6 63.7 49 6.9 44.4
11:20 1020 30.12 849 25.07 18.1 64.7 48 7 44.6
11:25 1020 30.12 849 25.07 18.5 65.4 48 7.4 45.3
11:30 1020 30.12 849 25.07 18.8 65.8 48 7.6 45.7
11:35 1020 30.12 849 25.07 18.4 65 49 7.6 45.6
11:40 1020 30.12 849 25.07 18.6 65.5 47 7.2 44.9
11:45 1020 30.12 849 25.07 18.3 65 49 7.5 45.5
11:50 1020 30.12 849 25.07 17.5 63.6 50 7.1 44.8
11:55 1020 30.12 849 25.07 17 62.6 49 6.4 43.5
12:00 1020 30.12 849 25.07 17 62.6 50 6.6 43.8
12:05 1020 30.12 849 25.07 18.7 65.6 45 6.8 44.2
12:10 1020 30.12 849 25.07 19.4 66.9 43 6.8 44.2
12:15 1020 30.12 849 25.07 19.8 67.7 42 6.6 44
12:20 1020 30.12 849 25.07 19.9 67.8 42 6.7 44.1
12:25 1020 30.12 849 25.07 20.1 68.2 41 6.7 44
12:30 1019 30.09 849 25.07 20 67.9 43 7 44.7
12:35 1019 30.09 849 25.07 20.7 69.3 40 6.7 44.1
12:40 1019 30.09 849 25.07 21 69.7 39 6.7 44
12:45 1019 30.09 848 25.04 20.5 69 39 6.3 43.4
12:50 1019 30.09 848 25.04 20.8 69.4 36 5.4 41.8
12:55 1019 30.09 848 25.04 20.4 68.6 35 4.7 40.4
13:00 1019 30.09 848 25.04 20.6 69 38 5.9 42.7
13:05 1019 30.09 848 25.04 20.8 69.4 38 6.1 43.1
13:10 1019 30.09 848 25.04 21.3 70.4 37 6.2 43.2
13:15 1019 30.09 848 25.04 21.3 70.3 40 7.2 44.9
13:20 1019 30.09 848 25.04 20.8 69.4 39 6.4 43.6
13:25 1019 30.09 848 25.04 21.3 70.3 37 6.3 43.3
13:30 1019 30.09 848 25.04 21.7 71 35 5.6 42
13:35 1019 30.09 848 25.04 22.3 72.2 35 6.1 43
13:40 1019 30.09 848 25.04 22.5 72.5 34 6 42.8
13:45 1019 30.09 848 25.04 22 71.7 34 5.7 42.2
13:50 1019 30.09 848 25.04 21.6 70.9 37 6.3 43.4
13:55 1019 30.09 848 25.04 21.6 70.9 34 5.2 41.4
14:00 1019 30.09 848 25.04 22.1 71.8 34 5.6 42
14:05 1019 30.09 848 25.04 22.9 73.3 31 5.1 41.3
14:10 1019 30.09 848 25.04 22.2 72 36 6.4 43.6
14:15 1019 30.09 848 25.04 22.5 72.5 32 5.3 41.6
14:20 1019 30.09 848 25.04 22.8 73 32 5.3 41.5
14:25 1019 30.09 848 25.04 22.6 72.6 32 5.1 41.3
14:30 1019 30.09 848 25.04 22.2 72 37 7.2 44.9
14:35 1019 30.09 848 25.04 21.9 71.3 38 7 44.6
14:40 1019 30.09 848 25.04 21.9 71.5 37 6.7 44.1
14:45 1019 30.09 848 25.04 22.3 72.2 37 7.2 44.9
14:50 1019 30.09 848 25.04 23.1 73.6 34 6.6 43.9
14:55 1019 30.09 848 25.04 23.6 74.5 34 7.2 44.9
15:00 1019 30.09 848 25.04 22.6 72.7 37 7.2 45
15:05 1019 30.09 848 25.04 22.1 71.8 35 6 42.9
15:10 1019 30.09 848 25.04 21.3 70.3 37 6.3 43.3
15:15 1019 30.09 848 25.04 20.9 69.5 42 7.6 45.7
15:20 1019 30.09 848 25.04 21.1 70 41 7.7 45.8
15:25 1019 30.09 848 25.04 21.6 70.9 38 7 44.7
15:30 1019 30.09 848 25.04 22.2 71.9 37 7.1 44.7
15:35 1019 30.09 848 25.04 22.4 72.3 39 8.1 46.5
15:40 1019 30.09 848 25.04 22.7 72.9 35 6.5 43.8
15:45 1019 30.09 848 25.04 23.5 74.2 20 -0.5 31.1
15:50 1019 30.09 848 25.04 23.8 74.8 21 0.6 33.1
15:55 1019 30.09 848 25.04 24.7 76.4 21 1.1 34
16:00 1019 30.09 848 25.04 24.5 76.2 21 1 33.7
16:05 1019 30.09 848 25.04 23.6 74.6 21 0.3 32.6
16:10 1019 30.09 848 25.04 23.3 73.9 19 -1.4 29.5
16:15 1019 30.09 848 25.04 23.4 74.1 23 1.2 34.2
16:20 1019 30.09 848 25.04 23.6 74.4 26 2.9 37.2
16:25 1019 30.09 848 25.04 23.5 74.3 27 3.4 38.2
16:30 1019 30.09 848 25.04 23.5 74.4 24 2.3 36.1
16:35 1019 30.09 848 25.04 24.3 75.8 23 2.1 35.7
16:40 1019 30.09 848 25.04 23.7 74.6 24 1.9 35.5
16:45 1019 30.09 848 25.04 23.9 75 23 1.9 35.4
16:50 1019 30.09 848 25.04 25.2 77.4 21 1.8 35.2
16:55 1019 30.09 848 25.04 24.7 76.4 22 1.9 35.4
17:00 1019 30.09 848 25.04 24.2 75.5 22 1.4 34.5
17:05 1019 30.09 848 25.04 24.6 76.3 23 2.4 36.4
17:10 1019 30.09 848 25.04 24.5 76.1 23 2.1 35.8
17:15 1019 30.09 848 25.04 23.9 75.1 24 2.2 35.9
17:20 1019 30.09 848 25.04 23.9 75.1 24 2.6 36.7
17:25 1019 30.09 848 25.04 24.2 75.6 24 2.6 36.7
17:30 1019 30.09 848 25.04 24.5 76 23 2.5 36.5
17:35 1019 30.09 848 25.04 24.8 76.7 24 2.9 37.2
17:40 1019 30.09 848 25.04 24.4 75.9 26 4 39.2
17:45 1019 30.09 848 25.04 23.7 74.6 25 2.8 37.1
17:50 1019 30.09 848 25.04 24.1 75.4 25 2.9 37.2
17:55 1019 30.09 848 25.04 24.1 75.4 26 3.5 38.3
18:00 1019 30.09 848 25.04 23.1 73.5 28 3.6 38.5
18:05 1019 30.09 848 25.04 22.7 72.9 29 3.9 39
18:10 1019 30.09 848 25.04 22.8 73.1 28 3.6 38.5
18:15 1019 30.09 848 25.04 23.1 73.5 29 4.1 39.3
18:20 1019 30.09 848 25.04 23.7 74.7 27 4 39.3
18:25 1019 30.09 848 25.04 23.5 74.3 29 4.7 40.5
18:30 1019 30.09 848 25.04 23.5 74.4 28 4.2 39.5
18:35 1019 30.09 848 25.04 23.8 74.8 28 4.3 39.8
18:40 1019 30.09 848 25.04 24.5 76 27 4.4 40
18:45 1019 30.09 848 25.04 24.9 76.8 26 4.5 40.1
18:50 1019 30.09 848 25.04 24.9 76.8 26 4.5 40.1
18:55 1019 30.09 848 25.04 24.3 75.8 27 4.1 39.5
19:00 1019 30.09 848 25.04 24.6 76.2 28 4.9 40.8
19:05 1019 30.09 848 25.04 24.5 76 29 5.5 41.8
19:10 1019 30.09 848 25.04 24.2 75.5 29 5.5 41.8
19:15 1019 30.09 848 25.04 23.8 74.8 31 6 42.8
19:20 1019 30.09 848 25.04 23.4 74 32 5.8 42.4
19:25 1019 30.09 848 25.04 23.2 73.7 33 6.2 43.2
19:30 1019 30.09 849 25.07 22.8 73.1 34 6.3 43.4
19:35 1019 30.09 848 25.04 22.7 72.8 34 6.3 43.4
19:40 1019 30.09 848 25.04 22.6 72.6 34 6.2 43.2
19:45 1019 30.09 849 25.07 22.5 72.5 35 6.4 43.4
19:50 1019 30.09 849 25.07 22.5 72.5 34 6.1 43
19:55 1019 30.09 849 25.07 22.3 72.2 35 6.2 43.1
20:00 1019 30.09 849 25.07 22.2 71.9 36 6.7 44.1
20:05 1019 30.09 849 25.07 21.9 71.5 38 7.2 45
20:10 1019 30.09 849 25.07 21.9 71.3 39 7.6 45.7
20:15 1020 30.12 849 25.07 21.7 71.1 40 7.7 45.9
20:20 1019 30.09 849 25.07 21.7 71 41 8.1 46.6
20:25 1020 30.12 849 25.07 21.6 70.8 42 8.3 46.9
20:30 1020 30.12 849 25.07 21.4 70.6 43 8.6 47.5
20:35 1020 30.12 849 25.07 21.3 70.3 45 8.9 48.1
20:40 1020 30.12 849 25.07 21.2 70.1 45 9 48.2
20:45 1020 30.12 849 25.07 21 69.8 46 9.3 48.7
20:50 1020 30.12 849 25.07 20.8 69.5 47 9.4 48.9
20:55 1020 30.12 849 25.07 20.7 69.3 48 9.5 49.2
21:00 1020 30.12 849 25.07 20.6 69.1 49 9.6 49.3
21:05 1020 30.12 849 25.07 20.5 68.9 49 9.6 49.3
21:10 1020 30.12 849 25.07 20.5 68.9 49 9.6 49.3
21:15 1020 30.12 849 25.07 20.4 68.7 50 9.7 49.5
21:20 1020 30.12 849 25.07 20.3 68.5 50 9.8 49.6
21:25 1020 30.12 849 25.07 20.2 68.4 51 9.8 49.6
21:30 1020 30.12 849 25.07 20.1 68.2 51 9.6 49.4
21:35 1020 30.12 849 25.07 20.2 68.3 51 9.9 49.8
21:40 1020 30.12 849 25.07 20.1 68.1 51 9.7 49.5
21:45 1020 30.12 849 25.07 20.1 68.1 52 9.9 49.8
21:50 1020 30.12 849 25.07 20 68 52 10 50
21:55 1020 30.12 849 25.07 19.8 67.7 53 10.1 50.3
22:00 1020 30.12 849 25.07 19.7 67.4 54 10.2 50.4
22:05 1020 30.12 849 25.07 19.5 67.1 54 10.2 50.3
22:10 1020 30.12 849 25.07 19.3 66.8 56 10.3 50.5
22:15 1020 30.12 849 25.07 19.3 66.7 56 10.4 50.6
22:20 1020 30.12 849 25.07 19.2 66.5 56 10.4 50.7
22:25 1020 30.12 849 25.07 19.1 66.3 57 10.5 51
22:30 1020 30.12 850 25.1 19 66.2 58 10.6 51
22:35 1020 30.12 850 25.1 18.9 66 58 10.6 51.1
22:40 1020 30.12 850 25.1 18.8 65.8 59 10.7 51.3
22:45 1020 30.12 850 25.1 18.6 65.5 59 10.6 51.1
22:50 1020 30.12 850 25.1 18.6 65.6 59 10.6 51.1
22:55 1020 30.12 850 25.1 18.7 65.6 59 10.7 51.2
23:00 1020 30.12 850 25.1 18.6 65.4 60 10.7 51.3
23:05 1021 30.15 850 25.1 18.5 65.2 60 10.7 51.3
23:10 1020 30.12 850 25.1 18.3 64.9 60 10.5 51
23:15 1021 30.15 850 25.1 18.2 64.8 61 10.6 51.1
23:20 1021 30.15 850 25.1 18.3 65 61 10.8 51.4
23:25 1021 30.15 850 25.1 18.3 65 62 10.9 51.6
23:30 1021 30.15 850 25.1 18.1 64.6 62 10.9 51.6
23:35 1021 30.15 850 25.1 17.8 64.1 63 10.8 51.4
23:40 1021 30.15 850 25.1 17.8 64 63 10.8 51.5
23:45 1021 30.15 850 25.1 17.8 64 63 10.7 51.2
23:50 1021 30.15 850 25.1 17.9 64.1 62 10.6 51.1
23:55 1021 30.15 850 25.1 17.9 64.2 62 10.6 51.1
24:00 1021 30.15 850 25.1 17.8 64 62 10.5 51